Time;durP1;ratioP1;P1;durP2;ratioP2;P2;SDS_P1;SDS_P2;PMS_P1;PMS_P2;Temp;Humidity;BMP_temperature;BMP_pressure;BME280_temperature;BME280_humidity;BME280_pressure;Samples;Min_cycle;Max_cycle;Signal;HPM_P1;HPM_P2
2023/05/26 00:01:14;;;;;;;25.45;5.10;;;7.90;99.90;;;;;;5010251;28;20060;-75
2023/05/26 00:03:44;;;;;;;25.10;5.93;;;7.80;99.90;;;;;;5009503;28;20419;-75
2023/05/26 00:06:13;;;;;;;23.92;5.30;;;7.80;99.90;;;;;;5009249;28;20041;-75
2023/05/26 00:08:39;;;;;;;23.85;5.20;;;7.70;99.90;;;;;;5010367;28;20045;-75
2023/05/26 00:11:06;;;;;;;26.73;5.28;;;7.70;99.90;;;;;;5010343;28;20041;-75
2023/05/26 00:13:32;;;;;;;32.58;6.55;;;7.60;99.90;;;;;;5009482;28;20036;-75
2023/05/26 00:15:57;;;;;;;27.38;5.10;;;7.60;99.90;;;;;;5012201;28;20041;-74
2023/05/26 00:18:26;;;;;;;28.13;5.20;;;7.50;99.90;;;;;;5009017;28;20048;-73
2023/05/26 00:20:55;;;;;;;31.60;5.53;;;7.50;99.90;;;;;;5011451;28;20065;-73
2023/05/26 00:23:21;;;;;;;30.27;6.82;;;7.50;99.90;;;;;;5010389;28;20034;-74
2023/05/26 00:25:49;;;;;;;27.75;5.63;;;7.40;99.90;;;;;;5008248;28;20168;-74
2023/05/26 00:28:16;;;;;;;28.40;6.10;;;7.40;99.90;;;;;;5010030;28;20398;-73
2023/05/26 00:30:41;;;;;;;22.35;4.78;;;7.40;99.90;;;;;;5010456;28;20042;-73
2023/05/26 00:33:07;;;;;;;29.10;5.80;;;7.40;99.90;;;;;;5009972;28;20041;-74
2023/05/26 00:35:33;;;;;;;31.75;5.85;;;7.40;99.90;;;;;;5012162;28;20055;-74
2023/05/26 00:37:59;;;;;;;22.38;4.28;;;7.30;99.90;;;;;;5010438;28;20084;-73
2023/05/26 00:40:24;;;;;;;27.55;5.70;;;7.30;99.90;;;;;;5000827;28;20427;-74
2023/05/26 00:42:50;;;;;;;28.30;5.25;;;7.30;99.90;;;;;;4994861;28;20049;-74
2023/05/26 00:45:16;;;;;;;23.90;5.50;;;7.30;99.90;;;;;;4996281;28;20037;-74
2023/05/26 00:47:41;;;;;;;21.02;5.68;;;7.30;99.90;;;;;;5010386;28;20043;-73
2023/05/26 00:50:08;;;;;;;24.02;5.43;;;7.30;99.90;;;;;;5013965;28;20040;-73
2023/05/26 00:52:34;;;;;;;29.77;5.47;;;7.20;99.90;;;;;;5010631;28;20107;-73
2023/05/26 00:55:01;;;;;;;25.60;5.70;;;7.20;99.90;;;;;;5010838;28;20192;-73
2023/05/26 00:57:30;;;;;;;26.30;4.80;;;7.20;99.90;;;;;;5003521;28;20115;-73
2023/05/26 00:59:57;;;;;;;21.63;5.55;;;7.20;99.90;;;;;;5014688;28;20041;-73
2023/05/26 01:02:22;;;;;;;19.92;4.63;;;7.10;99.90;;;;;;5014447;28;20269;-74
2023/05/26 01:04:52;;;;;;;19.42;4.93;;;7.10;99.90;;;;;;5002416;28;20091;-73
2023/05/26 01:07:21;;;;;;;27.05;6.15;;;7.10;99.90;;;;;;5014821;28;20048;-74
2023/05/26 01:09:51;;;;;;;24.38;4.93;;;7.00;99.90;;;;;;5014840;28;20041;-73
2023/05/26 01:12:34;;;;;;;26.73;6.07;;;6.90;99.90;;;;;;5015116;28;20042;-74
2023/05/26 01:15:17;;;;;;;28.77;6.32;;;6.90;99.90;;;;;;5016076;28;20049;-73
2023/05/26 01:18:28;;;;;;;24.08;5.07;;;6.80;99.90;;;;;;5013031;28;20060;-73
2023/05/26 01:21:01;;;;;;;30.05;5.65;;;6.80;99.90;;;;;;4938719;28;20149;-73
2023/05/26 01:23:51;;;;;;;26.77;5.03;;;6.80;99.90;;;;;;5010279;28;20544;-73
2023/05/26 01:26:44;;;;;;;31.40;5.15;;;6.80;99.90;;;;;;5031863;28;20053;-73
2023/05/26 01:29:15;;;;;;;35.80;6.13;;;6.80;99.90;;;;;;5008171;28;20037;-73
2023/05/26 01:31:41;;;;;;;20.40;4.85;;;6.80;99.90;;;;;;5014904;28;20124;-73
2023/05/26 01:34:08;;;;;;;36.65;6.25;;;6.80;99.90;;;;;;5012933;28;20041;-73
2023/05/26 01:36:35;;;;;;;31.35;6.65;;;6.80;99.90;;;;;;5014764;28;20040;-73
2023/05/26 01:39:02;;;;;;;24.90;4.97;;;6.80;99.90;;;;;;4997208;28;20099;-73
2023/05/26 01:41:58;;;;;;;32.38;5.55;;;6.80;99.90;;;;;;5031009;28;20443;-73
2023/05/26 01:44:29;;;;;;;23.08;5.18;;;6.80;99.90;;;;;;5012142;28;20121;-73
2023/05/26 01:46:55;;;;;;;22.58;5.07;;;6.70;99.90;;;;;;5012617;28;20557;-73
2023/05/26 01:49:27;;;;;;;28.58;5.53;;;6.70;99.90;;;;;;5012329;28;20116;-73
2023/05/26 01:51:58;;;;;;;28.92;6.28;;;6.70;99.90;;;;;;5013929;28;20408;-73
2023/05/26 01:54:27;;;;;;;31.88;5.97;;;6.70;99.90;;;;;;5030055;28;20050;-73
2023/05/26 01:56:53;;;;;;;22.25;5.00;;;6.70;99.90;;;;;;5013852;28;20448;-73
2023/05/26 01:59:20;;;;;;;23.45;4.78;;;6.60;99.90;;;;;;5013926;28;20041;-73
2023/05/26 02:01:47;;;;;;;17.55;3.80;;;6.60;99.90;;;;;;5013572;28;20053;-73
2023/05/26 02:04:13;;;;;;;21.98;5.10;;;6.60;99.90;;;;;;5011698;28;20424;-73
2023/05/26 02:06:39;;;;;;;26.33;4.60;;;6.60;99.90;;;;;;4995912;28;20095;-73
2023/05/26 02:09:05;;;;;;;26.58;5.10;;;6.50;99.90;;;;;;5011473;28;20029;-73
2023/05/26 02:11:32;;;;;;;30.38;5.72;;;6.50;99.90;;;;;;5013686;28;20069;-73
2023/05/26 02:13:58;;;;;;;17.67;4.22;;;6.50;99.90;;;;;;5013959;28;20127;-73
2023/05/26 02:16:25;;;;;;;20.80;5.25;;;6.50;99.90;;;;;;5013132;28;20265;-73
2023/05/26 02:18:51;;;;;;;19.60;3.83;;;6.50;99.90;;;;;;5001973;28;20095;-73
2023/05/26 02:21:16;;;;;;;23.88;5.35;;;6.40;99.90;;;;;;5012554;28;20430;-73
2023/05/26 02:23:43;;;;;;;25.80;5.78;;;6.40;99.90;;;;;;5010612;28;20149;-73
2023/05/26 02:26:09;;;;;;;19.50;4.15;;;6.40;99.90;;;;;;5005861;28;20091;-73
2023/05/26 02:28:37;;;;;;;22.55;5.00;;;6.40;99.90;;;;;;5009687;28;20528;-73
2023/05/26 02:31:03;;;;;;;20.98;4.68;;;6.40;99.90;;;;;;5010538;28;20552;-73
2023/05/26 02:33:28;;;;;;;22.08;4.93;;;6.30;99.90;;;;;;5008990;28;20065;-73
2023/05/26 02:35:54;;;;;;;26.67;4.93;;;6.30;99.90;;;;;;4994317;28;20037;-73
2023/05/26 02:38:20;;;;;;;26.92;5.07;;;6.30;99.90;;;;;;5006648;28;20104;-73
2023/05/26 02:40:45;;;;;;;27.15;5.22;;;6.20;99.90;;;;;;5014819;28;20116;-73
2023/05/26 02:43:11;;;;;;;26.17;5.20;;;6.30;99.90;;;;;;5008831;28;20204;-73
2023/05/26 02:45:37;;;;;;;25.48;4.70;;;6.20;99.90;;;;;;4993818;28;20049;-73
2023/05/26 02:48:02;;;;;;;26.17;5.50;;;6.20;99.90;;;;;;5006719;28;20042;-73
2023/05/26 02:50:28;;;;;;;21.50;4.38;;;6.20;99.90;;;;;;5011559;28;20485;-73
2023/05/26 02:52:54;;;;;;;24.85;5.10;;;6.20;99.90;;;;;;5009346;28;20030;-73
2023/05/26 02:55:21;;;;;;;23.02;4.78;;;6.20;99.90;;;;;;5009050;28;20144;-73
2023/05/26 02:57:47;;;;;;;23.80;4.80;;;6.10;99.90;;;;;;4998172;28;20092;-75
2023/05/26 03:00:13;;;;;;;35.42;5.97;;;6.10;99.90;;;;;;5009057;28;20124;-75
2023/05/26 03:02:39;;;;;;;27.27;5.07;;;6.10;99.90;;;;;;5025997;28;20050;-75
2023/05/26 03:05:06;;;;;;;20.10;5.10;;;6.00;99.90;;;;;;5008657;28;20056;-75
2023/05/26 03:07:31;;;;;;;25.70;5.05;;;6.10;99.90;;;;;;5032847;28;20045;-74
2023/05/26 03:09:57;;;;;;;20.83;4.55;;;6.10;99.90;;;;;;5008108;28;20559;-74
2023/05/26 03:12:23;;;;;;;31.88;6.22;;;6.10;99.90;;;;;;5009735;28;20056;-73
2023/05/26 03:14:49;;;;;;;29.33;5.35;;;6.00;99.90;;;;;;5009230;28;20038;-73
2023/05/26 03:17:16;;;;;;;29.00;4.78;;;6.10;99.90;;;;;;5008375;28;20461;-73
2023/05/26 03:19:42;;;;;;;28.85;5.25;;;6.10;99.90;;;;;;4990321;28;20470;-73
2023/05/26 03:22:08;;;;;;;23.38;5.07;;;6.20;99.90;;;;;;5005385;28;20072;-73
2023/05/26 03:24:35;;;;;;;25.48;4.63;;;6.20;99.90;;;;;;5008695;28;20045;-73
2023/05/26 03:27:01;;;;;;;24.77;5.53;;;6.20;99.90;;;;;;4993752;28;20053;-72
2023/05/26 03:29:29;;;;;;;20.77;5.30;;;6.30;99.90;;;;;;5011456;28;20417;-73
2023/05/26 03:31:55;;;;;;;25.70;5.18;;;6.30;99.90;;;;;;5015330;28;20136;-73
2023/05/26 03:34:21;;;;;;;26.02;5.47;;;6.30;99.90;;;;;;5009416;28;20481;-73
2023/05/26 03:36:49;;;;;;;26.92;5.47;;;6.40;99.90;;;;;;5011049;28;20048;-73
2023/05/26 03:39:15;;;;;;;28.33;5.80;;;6.40;99.90;;;;;;5010251;28;20053;-73
2023/05/26 03:41:41;;;;;;;25.13;5.22;;;6.40;99.90;;;;;;5011017;28;20038;-73
2023/05/26 03:44:07;;;;;;;36.92;6.25;;;6.50;99.90;;;;;;5010823;28;20416;-73
2023/05/26 03:46:33;;;;;;;30.73;5.60;;;6.50;99.90;;;;;;5000527;28;20065;-72
2023/05/26 03:48:59;;;;;;;26.85;6.65;;;6.60;99.90;;;;;;5011231;28;20037;-72
2023/05/26 03:51:26;;;;;;;24.30;6.07;;;6.60;99.90;;;;;;5012330;28;20038;-72
2023/05/26 03:53:51;;;;;;;19.15;5.07;;;6.60;99.90;;;;;;5006151;28;20037;-72
2023/05/26 03:56:17;;;;;;;26.60;6.15;;;6.70;99.90;;;;;;5012259;28;20110;-72
2023/05/26 03:58:44;;;;;;;32.45;5.25;;;6.70;99.90;;;;;;5011535;28;20053;-73
2023/05/26 04:01:10;;;;;;;24.75;5.35;;;6.70;99.90;;;;;;5011862;28;20409;-73
2023/05/26 04:03:36;;;;;;;26.52;5.53;;;6.60;99.90;;;;;;5011467;28;20064;-73
2023/05/26 04:06:02;;;;;;;35.30;6.25;;;6.70;99.90;;;;;;5011810;28;20049;-72
2023/05/26 04:08:28;;;;;;;30.10;5.28;;;6.70;99.90;;;;;;5011696;28;20037;-72
2023/05/26 04:10:54;;;;;;;27.70;6.40;;;6.70;99.90;;;;;;5011531;28;20417;-72
2023/05/26 04:13:20;;;;;;;29.42;5.75;;;6.70;99.90;;;;;;5010571;28;20029;-73
2023/05/26 04:15:46;;;;;;;26.42;5.00;;;6.70;99.90;;;;;;5012140;28;20099;-73
2023/05/26 04:18:13;;;;;;;24.60;5.53;;;6.80;99.90;;;;;;4990472;28;20045;-73
2023/05/26 04:20:39;;;;;;;25.73;5.55;;;6.80;99.90;;;;;;4992310;28;20033;-73
2023/05/26 04:23:05;;;;;;;22.55;5.10;;;6.80;99.90;;;;;;5011606;28;20410;-73
2023/05/26 04:25:30;;;;;;;29.50;6.78;;;6.90;99.90;;;;;;5011252;28;20041;-73
2023/05/26 04:27:58;;;;;;;28.10;5.88;;;6.90;99.90;;;;;;5011786;28;20084;-73
2023/05/26 04:30:24;;;;;;;23.23;4.93;;;7.00;99.90;;;;;;4999325;28;20133;-73
2023/05/26 04:32:50;;;;;;;24.95;5.22;;;7.10;99.90;;;;;;5010981;28;20049;-73
2023/05/26 04:35:17;;;;;;;28.15;6.32;;;7.20;99.90;;;;;;4994889;28;20140;-73
2023/05/26 04:37:43;;;;;;;28.23;5.90;;;7.20;99.90;;;;;;5011663;28;20038;-73
2023/05/26 04:40:09;;;;;;;30.88;5.97;;;7.30;99.90;;;;;;4998359;28;20041;-73
2023/05/26 04:42:38;;;;;;;31.83;5.35;;;7.40;99.90;;;;;;5012076;28;20431;-73
2023/05/26 04:45:04;;;;;;;28.25;6.22;;;7.50;99.90;;;;;;5011197;28;20056;-73
2023/05/26 04:47:32;;;;;;;35.75;5.68;;;7.50;99.90;;;;;;5011406;28;20080;-73
2023/05/26 04:50:02;;;;;;;30.10;5.28;;;7.60;99.90;;;;;;5006139;28;20125;-73
2023/05/26 04:52:28;;;;;;;24.75;5.05;;;7.80;99.90;;;;;;5026283;28;20042;-73
2023/05/26 04:54:54;;;;;;;26.88;5.47;;;8.00;99.90;;;;;;5011659;28;20102;-74
2023/05/26 04:57:20;;;;;;;32.67;5.60;;;8.30;99.90;;;;;;5008374;28;20030;-73
2023/05/26 04:59:46;;;;;;;33.03;5.57;;;8.50;99.90;;;;;;5011112;28;20515;-73
2023/05/26 05:02:12;;;;;;;21.58;5.18;;;8.50;99.90;;;;;;5011216;28;20077;-73
2023/05/26 05:04:40;;;;;;;30.30;6.70;;;8.60;99.90;;;;;;4997962;28;20095;-73
2023/05/26 05:07:05;;;;;;;26.90;6.07;;;8.80;99.90;;;;;;4994771;28;20041;-74
2023/05/26 05:09:31;;;;;;;25.10;6.00;;;9.00;99.90;;;;;;5011114;28;20114;-74
2023/05/26 05:11:57;;;;;;;28.45;5.85;;;9.10;99.90;;;;;;5011159;28;20045;-74
2023/05/26 05:14:22;;;;;;;29.05;6.57;;;9.30;99.90;;;;;;5010925;28;20512;-74
2023/05/26 05:16:48;;;;;;;25.52;5.45;;;9.40;99.90;;;;;;5011302;28;20438;-74
2023/05/26 05:19:14;;;;;;;25.90;5.40;;;9.60;99.90;;;;;;5004262;28;20136;-74
2023/05/26 05:21:39;;;;;;;26.90;5.65;;;9.80;99.90;;;;;;5031772;28;20037;-73
2023/05/26 05:24:05;;;;;;;28.25;5.15;;;9.80;99.90;;;;;;5011202;28;20064;-73
2023/05/26 05:26:31;;;;;;;30.23;5.00;;;9.70;99.90;;;;;;5010819;28;20076;-74
2023/05/26 05:28:57;;;;;;;26.73;5.68;;;9.70;99.90;;;;;;5010494;28;20083;-74
2023/05/26 05:31:22;;;;;;;24.73;5.57;;;9.70;99.90;;;;;;5002411;28;20118;-73
2023/05/26 05:33:48;;;;;;;22.13;5.03;;;9.70;99.90;;;;;;5009731;28;20037;-74
2023/05/26 05:36:14;;;;;;;21.35;5.47;;;9.70;99.90;;;;;;5010998;28;20477;-74
2023/05/26 05:38:40;;;;;;;29.95;6.38;;;9.80;99.90;;;;;;5010655;28;20041;-74
2023/05/26 05:41:05;;;;;;;36.45;5.80;;;9.80;99.90;;;;;;5011031;28;20041;-74
2023/05/26 05:43:32;;;;;;;28.50;5.60;;;9.80;99.90;;;;;;5010908;28;20045;-74
2023/05/26 05:45:58;;;;;;;28.70;6.40;;;9.80;99.90;;;;;;5028373;28;20172;-74
2023/05/26 05:48:24;;;;;;;29.77;6.10;;;9.80;99.90;;;;;;4995532;28;20560;-74
2023/05/26 05:50:49;;;;;;;29.15;5.95;;;9.90;99.90;;;;;;4998272;28;20056;-74
2023/05/26 05:53:15;;;;;;;29.20;5.47;;;9.90;99.90;;;;;;5011164;28;20128;-74
2023/05/26 05:55:41;;;;;;;25.15;5.45;;;10.00;99.90;;;;;;5013733;28;20041;-74
2023/05/26 05:58:06;;;;;;;24.02;4.85;;;10.00;99.90;;;;;;5014387;28;20587;-74
2023/05/26 06:00:32;;;;;;;25.80;5.38;;;10.00;99.90;;;;;;5012715;28;20154;-74
2023/05/26 06:02:58;;;;;;;22.42;5.65;;;10.10;99.90;;;;;;5013282;28;20037;-74
2023/05/26 06:05:23;;;;;;;25.73;5.25;;;10.20;99.90;;;;;;5009764;28;20045;-74
2023/05/26 06:07:49;;;;;;;23.50;4.55;;;10.30;99.90;;;;;;5007033;28;20481;-73
2023/05/26 06:10:15;;;;;;;29.13;6.15;;;10.30;99.90;;;;;;5013447;28;20030;-74
2023/05/26 06:12:40;;;;;;;30.17;5.43;;;10.40;99.90;;;;;;5014627;28;20033;-74
2023/05/26 06:15:07;;;;;;;25.83;5.43;;;10.50;99.90;;;;;;5011245;28;20045;-74
2023/05/26 06:17:33;;;;;;;26.63;5.72;;;10.60;99.90;;;;;;5004569;28;20035;-74
2023/05/26 06:19:59;;;;;;;27.73;5.80;;;10.80;99.90;;;;;;5012689;28;20041;-74
2023/05/26 06:22:24;;;;;;;22.77;5.30;;;10.90;99.90;;;;;;5012911;28;20044;-74
2023/05/26 06:24:52;;;;;;;34.60;5.70;;;11.00;99.90;;;;;;5013309;28;20052;-73
2023/05/26 06:27:18;;;;;;;23.95;5.30;;;11.10;99.90;;;;;;5012839;28;20049;-74
2023/05/26 06:29:44;;;;;;;32.95;6.05;;;11.10;99.90;;;;;;5013514;28;20044;-73
2023/05/26 06:32:10;;;;;;;26.02;4.78;;;11.20;99.90;;;;;;5013068;28;20041;-74
2023/05/26 06:34:35;;;;;;;27.02;5.70;;;11.20;99.90;;;;;;5012325;28;20088;-73
2023/05/26 06:37:01;;;;;;;28.25;5.47;;;11.40;99.90;;;;;;5013207;28;20037;-74
2023/05/26 06:39:27;;;;;;;22.13;5.18;;;11.40;99.90;;;;;;5010266;28;20104;-73
2023/05/26 06:41:52;;;;;;;27.42;4.88;;;11.40;99.90;;;;;;5013049;28;20060;-74
2023/05/26 06:44:18;;;;;;;28.20;6.40;;;11.40;99.90;;;;;;5012729;28;20044;-74
2023/05/26 06:46:44;;;;;;;35.75;8.30;;;11.40;99.90;;;;;;5010701;28;20542;-74
2023/05/26 06:49:10;;;;;;;29.50;5.85;;;11.50;99.90;;;;;;5012397;28;20061;-73
2023/05/26 06:51:35;;;;;;;29.65;5.50;;;11.70;99.90;;;;;;5012216;28;20124;-73
2023/05/26 06:54:01;;;;;;;27.90;5.95;;;11.80;99.90;;;;;;5013365;28;20042;-74
2023/05/26 06:56:27;;;;;;;24.02;5.13;;;11.90;99.90;;;;;;4995677;28;20048;-73
2023/05/26 06:58:53;;;;;;;27.85;5.78;;;11.90;99.90;;;;;;5013584;28;20029;-73
2023/05/26 07:01:19;;;;;;;23.00;5.57;;;12.00;99.90;;;;;;5011507;28;20133;-74
2023/05/26 07:03:44;;;;;;;29.98;5.90;;;11.90;99.90;;;;;;4996378;28;20562;-74
2023/05/26 07:06:11;;;;;;;23.42;5.15;;;12.10;99.90;;;;;;5012155;28;20049;-74
2023/05/26 07:08:36;;;;;;;20.92;5.50;;;12.20;99.90;;;;;;4995209;28;20048;-74
2023/05/26 07:11:02;;;;;;;29.55;5.38;;;12.30;99.90;;;;;;5014475;28;20046;-73
2023/05/26 07:13:28;;;;;;;30.42;5.80;;;12.40;99.90;;;;;;5013414;28;20554;-74
2023/05/26 07:15:54;;;;;;;21.58;5.18;;;12.60;99.90;;;;;;5013634;28;20131;-74
2023/05/26 07:18:20;;;;;;;21.70;5.10;;;12.70;99.90;;;;;;4995464;28;20072;-74
2023/05/26 07:20:47;;;;;;;24.85;5.60;;;12.70;99.90;;;;;;5013365;28;20068;-73
2023/05/26 07:23:13;;;;;;;25.23;5.25;;;12.70;99.90;;;;;;5012549;28;20045;-73
2023/05/26 07:25:39;;;;;;;25.27;5.65;;;12.60;99.90;;;;;;5013153;28;20037;-73
2023/05/26 07:28:05;;;;;;;21.05;4.97;;;12.60;99.90;;;;;;5012786;28;20053;-72
2023/05/26 07:30:30;;;;;;;23.15;5.07;;;12.70;99.90;;;;;;5013255;28;20053;-73
2023/05/26 07:32:56;;;;;;;20.23;4.80;;;12.80;99.90;;;;;;5011843;28;20069;-73
2023/05/26 07:35:22;;;;;;;22.17;4.35;;;12.90;99.90;;;;;;5013104;28;20091;-72
2023/05/26 07:37:48;;;;;;;23.25;4.20;;;13.00;99.90;;;;;;5011943;28;20051;-73
2023/05/26 07:40:13;;;;;;;17.92;4.03;;;13.10;99.90;;;;;;4996272;28;20045;-73
2023/05/26 07:42:42;;;;;;;23.02;5.07;;;13.30;99.90;;;;;;5013655;28;20398;-72
2023/05/26 07:45:08;;;;;;;23.33;4.95;;;13.40;99.90;;;;;;5013225;28;20157;-73
2023/05/26 07:47:35;;;;;;;21.55;4.32;;;13.40;99.90;;;;;;5012511;28;20045;-73
2023/05/26 07:50:01;;;;;;;21.75;4.43;;;13.50;99.90;;;;;;5013083;28;20416;-73
2023/05/26 07:52:27;;;;;;;22.25;4.30;;;13.70;99.90;;;;;;5011637;28;20102;-73
2023/05/26 07:54:53;;;;;;;19.27;4.43;;;13.90;99.90;;;;;;5013155;28;20060;-73
2023/05/26 07:57:19;;;;;;;23.73;4.47;;;14.00;99.90;;;;;;4996269;28;20079;-72
2023/05/26 07:59:44;;;;;;;25.73;4.50;;;14.10;99.90;;;;;;5002837;28;20037;-73
2023/05/26 08:02:10;;;;;;;16.42;4.47;;;14.20;99.90;;;;;;5012345;28;20576;-73
2023/05/26 08:04:37;;;;;;;16.58;4.60;;;14.40;99.90;;;;;;5012558;28;20045;-72
2023/05/26 08:07:04;;;;;;;18.00;3.80;;;14.60;99.90;;;;;;5011216;28;20128;-72
2023/05/26 08:09:29;;;;;;;16.70;4.25;;;14.80;99.90;;;;;;5013036;28;20049;-73
2023/05/26 08:11:55;;;;;;;15.48;3.70;;;14.70;99.90;;;;;;4995648;28;20397;-72
2023/05/26 08:14:23;;;;;;;17.10;3.30;;;14.70;99.90;;;;;;5012062;28;20036;-71
2023/05/26 08:16:49;;;;;;;13.15;3.38;;;14.90;99.90;;;;;;5013076;28;20076;-72
2023/05/26 08:19:14;;;;;;;16.42;3.75;;;14.90;99.90;;;;;;5010954;28;20033;-72
2023/05/26 08:21:40;;;;;;;16.33;4.13;;;15.00;99.90;;;;;;5012492;28;20044;-72
2023/05/26 08:24:06;;;;;;;15.57;3.88;;;15.10;99.10;;;;;;5012220;28;20523;-73
2023/05/26 08:26:32;;;;;;;18.60;4.00;;;15.00;99.20;;;;;;5011302;28;20041;-72
2023/05/26 08:28:58;;;;;;;18.67;4.93;;;15.00;99.00;;;;;;5001640;28;20057;-73
2023/05/26 08:31:24;;;;;;;17.70;3.97;;;15.00;99.90;;;;;;5012505;28;20463;-73
2023/05/26 08:33:50;;;;;;;16.30;3.83;;;15.20;99.90;;;;;;5011309;28;20393;-77
2023/05/26 08:36:15;;;;;;;18.08;3.88;;;15.50;99.90;;;;;;5001672;28;20033;-71
2023/05/26 08:38:47;;;;;;;15.85;4.43;;;15.80;99.90;;;;;;5011802;28;20037;-73
2023/05/26 08:41:17;;;;;;;14.32;3.30;;;16.00;99.40;;;;;;5012657;28;20041;-73
2023/05/26 08:43:46;;;;;;;13.80;3.33;;;16.30;98.10;;;;;;5002713;28;20187;-73
2023/05/26 08:46:12;;;;;;;14.65;3.60;;;16.70;96.70;;;;;;5012848;28;20044;-73
2023/05/26 08:48:39;;;;;;;12.07;3.70;;;16.70;95.30;;;;;;5011465;28;20048;-73
2023/05/26 08:51:09;;;;;;;15.45;3.65;;;16.80;95.30;;;;;;5012402;28;20045;-73
2023/05/26 08:53:36;;;;;;;14.73;3.75;;;17.00;94.30;;;;;;5011994;28;20044;-71
2023/05/26 08:56:03;;;;;;;14.95;3.72;;;17.00;93.40;;;;;;5002710;28;20179;-73
2023/05/26 08:58:31;;;;;;;12.48;3.88;;;17.00;92.80;;;;;;4991479;28;20065;-74
2023/05/26 09:00:57;;;;;;;15.85;3.75;;;17.00;92.80;;;;;;5012416;28;20048;-72
2023/05/26 09:03:23;;;;;;;14.60;4.20;;;17.00;92.50;;;;;;5011367;28;20056;-74
2023/05/26 09:05:49;;;;;;;9.85;3.13;;;17.20;91.60;;;;;;5011893;28;20056;-74
2023/05/26 09:08:15;;;;;;;16.00;4.07;;;17.50;92.70;;;;;;5011576;28;20497;-73
2023/05/26 09:10:41;;;;;;;12.80;4.00;;;17.60;90.10;;;;;;5000962;28;20468;-73
2023/05/26 09:13:08;;;;;;;16.42;3.85;;;17.50;89.90;;;;;;5011019;28;20175;-72
2023/05/26 09:15:36;;;;;;;15.93;3.63;;;17.30;89.40;;;;;;5004174;28;20822;-73
2023/05/26 09:18:04;;;;;;;16.35;3.40;;;17.30;89.20;;;;;;5004517;28;20390;-71
2023/05/26 09:20:30;;;;;;;12.27;3.75;;;17.50;86.80;;;;;;4997129;28;20044;-74
2023/05/26 09:22:58;;;;;;;17.55;3.60;;;17.60;87.30;;;;;;5016621;28;20436;-74
2023/05/26 09:25:34;;;;;;;11.25;3.25;;;17.80;88.80;;;;;;5003391;28;20049;-74
2023/05/26 09:28:11;;;;;;;14.30;3.17;;;18.20;86.40;;;;;;5014042;28;20113;-73
2023/05/26 09:30:40;;;;;;;10.93;3.00;;;18.30;85.70;;;;;;5014975;28;20058;-72
2023/05/26 09:33:08;;;;;;;9.75;2.80;;;18.30;81.10;;;;;;5013830;28;20454;-74
2023/05/26 09:35:39;;;;;;;17.38;5.47;;;18.00;80.80;;;;;;5014273;28;20037;-73
2023/05/26 09:38:08;;;;;;;11.02;2.85;;;18.10;80.50;;;;;;4998397;28;20037;-75
2023/05/26 09:40:35;;;;;;;13.48;3.30;;;18.10;78.40;;;;;;5030971;28;20414;-72
2023/05/26 09:43:01;;;;;;;13.57;3.45;;;18.00;80.10;;;;;;5015011;28;20102;-72
2023/05/26 09:45:35;;;;;;;12.20;3.40;;;18.10;81.00;;;;;;5013662;28;20125;-72
2023/05/26 09:48:02;;;;;;;14.88;3.05;;;18.20;78.40;;;;;;5014195;28;20049;-73
2023/05/26 09:50:32;;;;;;;11.65;3.22;;;18.40;77.80;;;;;;5013609;28;20053;-74
2023/05/26 09:53:03;;;;;;;12.40;3.30;;;18.50;77.50;;;;;;4997876;28;20036;-73
2023/05/26 09:55:32;;;;;;;12.95;3.22;;;18.50;78.10;;;;;;5030089;28;20045;-72
2023/05/26 09:58:06;;;;;;;11.50;3.15;;;18.50;77.30;;;;;;5014480;28;20049;-74
2023/05/26 10:00:38;;;;;;;9.65;2.90;;;18.50;76.60;;;;;;5009562;28;20045;-75
2023/05/26 10:03:06;;;;;;;10.02;3.20;;;18.50;74.30;;;;;;5008951;28;20073;-73
2023/05/26 10:05:33;;;;;;;10.50;3.10;;;18.30;75.50;;;;;;5011504;28;20451;-74
2023/05/26 10:08:00;;;;;;;12.23;3.42;;;18.50;74.80;;;;;;5018044;28;20428;-73
2023/05/26 10:10:29;;;;;;;12.98;3.42;;;18.50;74.60;;;;;;4998729;28;20045;-74
2023/05/26 10:12:55;;;;;;;11.98;3.05;;;18.70;77.30;;;;;;5013513;28;20056;-74
2023/05/26 10:15:21;;;;;;;12.32;3.38;;;19.00;75.60;;;;;;5011472;28;20392;-73
2023/05/26 10:17:48;;;;;;;15.27;4.47;;;19.00;74.10;;;;;;5013140;28;20050;-74
2023/05/26 10:20:14;;;;;;;12.82;3.53;;;18.90;72.60;;;;;;5012356;28;20346;-75
2023/05/26 10:23:04;;;;;;;10.68;2.83;;;18.80;73.70;;;;;;5013493;28;20465;-74
2023/05/26 10:25:58;;;;;;;13.32;3.60;;;18.80;70.60;;;;;;5028298;28;20103;-75
2023/05/26 10:28:49;;;;;;;11.82;3.38;;;18.40;72.20;;;;;;4994669;28;20152;-74
2023/05/26 10:31:29;;;;;;;10.70;3.60;;;18.20;72.60;;;;;;5011475;28;20404;-75
2023/05/26 10:33:56;;;;;;;11.23;3.28;;;18.40;74.00;;;;;;5011597;28;20044;-72
2023/05/26 10:36:23;;;;;;;11.52;3.25;;;18.60;74.10;;;;;;5011761;28;20045;-73
2023/05/26 10:38:53;;;;;;;10.10;3.22;;;18.80;75.20;;;;;;5013820;28;20045;-73
2023/05/26 10:41:32;;;;;;;9.55;2.83;;;18.90;71.60;;;;;;5013600;28;20030;-74
2023/05/26 10:44:02;;;;;;;12.65;3.22;;;19.00;71.00;;;;;;5011771;28;20053;-75
2023/05/26 10:46:45;;;;;;;10.93;3.15;;;19.00;71.90;;;;;;5012478;28;20045;-74
2023/05/26 10:49:23;;;;;;;11.95;3.00;;;18.90;70.50;;;;;;5013013;28;20049;-72
2023/05/26 10:51:52;;;;;;;11.07;3.17;;;18.80;68.70;;;;;;5013846;28;20144;-73
2023/05/26 10:54:22;;;;;;;8.90;2.85;;;18.80;69.50;;;;;;5013500;28;20123;-74
2023/05/26 10:56:50;;;;;;;8.77;2.70;;;18.80;69.60;;;;;;5011567;28;20041;-73
2023/05/26 10:59:33;;;;;;;9.77;2.70;;;18.80;70.10;;;;;;5000201;28;20129;-73
2023/05/26 11:02:04;;;;;;;13.48;3.60;;;18.70;68.50;;;;;;5023681;28;20106;-74
2023/05/26 11:04:41;;;;;;;12.25;3.45;;;18.70;69.20;;;;;;5010567;28;20041;-75
2023/05/26 11:07:24;;;;;;;9.77;3.35;;;18.90;71.90;;;;;;5010686;28;20081;-73
2023/05/26 11:09:59;;;;;;;13.60;3.67;;;19.10;69.70;;;;;;4997281;28;20033;-72
2023/05/26 11:12:25;;;;;;;10.70;2.83;;;19.10;69.60;;;;;;5010702;28;20097;-73
2023/05/26 11:14:51;;;;;;;11.88;3.30;;;19.20;69.20;;;;;;4999532;28;20033;-74
2023/05/26 11:17:19;;;;;;;10.27;3.88;;;19.20;69.60;;;;;;5012934;28;20037;-73
2023/05/26 11:19:54;;;;;;;13.30;3.33;;;19.40;70.20;;;;;;5010734;28;20053;-74
2023/05/26 11:22:23;;;;;;;9.30;2.85;;;19.70;68.90;;;;;;5011699;28;20505;-74
2023/05/26 11:24:51;;;;;;;10.02;2.88;;;19.80;68.50;;;;;;5000848;28;20041;-74
2023/05/26 11:27:17;;;;;;;11.55;3.22;;;19.70;68.20;;;;;;5013491;28;20041;-74
2023/05/26 11:29:45;;;;;;;14.07;3.10;;;19.70;67.70;;;;;;4997013;28;20049;-74
2023/05/26 11:32:13;;;;;;;9.95;3.03;;;19.60;67.50;;;;;;5003419;28;20099;-74
2023/05/26 11:34:38;;;;;;;11.57;2.92;;;19.50;69.10;;;;;;5012269;28;20048;-73
2023/05/26 11:37:08;;;;;;;10.15;2.92;;;19.30;66.70;;;;;;5012216;28;20033;-77
2023/05/26 11:39:37;;;;;;;11.90;3.05;;;19.30;66.20;;;;;;5009928;28;20080;-75
2023/05/26 11:42:13;;;;;;;13.63;3.25;;;19.10;66.60;;;;;;4998900;28;20390;-75
2023/05/26 11:44:39;;;;;;;9.13;2.90;;;19.40;68.00;;;;;;5011590;28;20444;-74
2023/05/26 11:47:05;;;;;;;10.98;3.20;;;19.50;67.20;;;;;;5011552;28;20425;-73
2023/05/26 11:49:31;;;;;;;13.07;3.15;;;19.70;67.50;;;;;;4999507;28;20044;-76
2023/05/26 11:51:57;;;;;;;10.43;3.22;;;19.70;66.30;;;;;;5011356;28;20120;-73
2023/05/26 11:54:23;;;;;;;12.45;3.13;;;19.80;67.10;;;;;;5012371;28;20187;-74
2023/05/26 11:56:49;;;;;;;11.07;3.35;;;19.90;68.70;;;;;;5011481;28;20462;-74
2023/05/26 11:59:20;;;;;;;12.35;3.40;;;19.80;67.70;;;;;;5011360;28;20045;-74
2023/05/26 12:01:46;;;;;;;11.45;3.30;;;19.90;67.40;;;;;;5010839;28;20048;-75
2023/05/26 12:04:12;;;;;;;12.23;3.72;;;19.90;67.10;;;;;;4994426;28;20041;-74
2023/05/26 12:06:40;;;;;;;9.65;3.50;;;19.90;65.60;;;;;;5027235;28;20042;-75
2023/05/26 12:09:20;;;;;;;11.13;3.08;;;19.90;64.50;;;;;;5010126;28;20049;-73
2023/05/26 12:11:47;;;;;;;9.98;3.10;;;19.80;65.50;;;;;;5009797;28;20374;-74
2023/05/26 12:14:14;;;;;;;12.05;3.13;;;19.60;64.30;;;;;;5011773;28;20480;-74
2023/05/26 12:16:46;;;;;;;14.65;3.20;;;19.40;64.30;;;;;;5010178;28;20030;-74
2023/05/26 12:19:21;;;;;;;13.23;3.58;;;19.40;63.80;;;;;;5010962;28;20208;-74
2023/05/26 12:21:58;;;;;;;10.88;3.35;;;19.30;63.20;;;;;;5009653;28;20038;-75
2023/05/26 12:24:33;;;;;;;11.32;3.10;;;19.10;64.20;;;;;;5008015;28;20115;-72
2023/05/26 12:27:11;;;;;;;10.32;3.88;;;18.80;64.60;;;;;;5009173;28;20037;-74
2023/05/26 12:29:41;;;;;;;12.00;3.15;;;18.80;66.80;;;;;;5004296;28;20079;-74
2023/05/26 12:32:08;;;;;;;13.05;4.10;;;18.90;66.30;;;;;;4997239;28;20077;-74
2023/05/26 12:34:38;;;;;;;15.52;3.53;;;19.10;66.20;;;;;;5026094;28;20037;-76
2023/05/26 12:37:04;;;;;;;11.35;3.42;;;19.20;66.80;;;;;;5006267;28;20355;-73
2023/05/26 12:39:31;;;;;;;15.70;3.47;;;19.20;66.60;;;;;;4993860;28;20076;-74
2023/05/26 12:41:57;;;;;;;14.75;4.03;;;19.00;66.30;;;;;;5009786;28;20049;-74
2023/05/26 12:44:23;;;;;;;12.10;3.83;;;18.90;66.50;;;;;;5010239;28;20152;-74
2023/05/26 12:46:50;;;;;;;13.45;3.83;;;19.10;68.60;;;;;;5008709;28;20516;-73